Estación Meteorológica Peña el Pijo (Robertgarden) [ 05/25/18 12:58:11 CEST ]

Fecha Hora Presion(HPa) Temp (°C) Humedad % Rocio (°C) Viento ( m/s) Direccion Lluvia 1Hora(mm) Lluvia 24H(mm) LLuvia Total(mm)
2018-May-24 01:01:16 1009.700 10.7 79 7.3         218.07
2018-May-24 02:01:12 1009.200 10.2 82 7.2         218.07
2018-May-24 03:03:10 1009.000 9.6 83 6.8         218.07
2018-May-24 04:01:38 1008.300 9.0 84 6.4         218.07
2018-May-24 05:01:21 1008.000 8.1 85 5.7         218.07
2018-May-24 06:01:36 1008.000 8.4 86 6.2         218.07
2018-May-24 07:01:31 1007.300 8.4 86 6.1         218.07
2018-May-24 08:01:15 1008.500 9.3 86 7.1     0.51 0.51 218.59
2018-May-24 09:01:30 1008.100 10.2 87 8.1       1.03 219.11
2018-May-24 10:01:25 1008.000 13.8 86 11.5       1.03 219.11
2018-May-24 11:01:29 1007.700 19.2 64 12.2       1.03 219.11
2018-May-24 12:01:39 1007.400 23.3 47 11.3       1.03 219.11
2018-May-24 13:01:41 1007.500 23.6 39 8.8 0.4 ENE   1.03 219.11
2018-May-24 14:01:52 1007.000 21.8 40 7.6       1.03 219.11
2018-May-24 15:01:42 1006.500 21.8 41 7.9       1.03 219.11
2018-May-24 16:02:04 1006.100 22.8 38 7.7 1.5 SSW   1.03 219.11
2018-May-24 17:01:51 1005.400 25.1 37 9.3       1.03 219.11
2018-May-24 18:01:46 1004.900 24.9 35 8.3 4.3 SSW   1.03 219.11
2018-May-24 19:01:51 1004.600 22.9 35 6.5 2.6 SW   1.03 219.11
2018-May-24 20:01:43 1004.900 21.3 40 7.2       1.03 219.11
2018-May-24 21:01:50 1005.000 19.1 47 7.5       1.03 219.11
2018-May-24 22:01:43 1005.700 16.8 56 7.9       1.03 219.11
2018-May-24 23:01:48 1006.400 15.6 61 8.1       1.03 219.11

Temperatura Máxima:25°    Temperatura Mínima:
Presión Máxima:1009.700 Hpa    Presión Mínima:1004.600 Hpa


Volver